Time;durP1;ratioP1;P1;durP2;ratioP2;P2;SDS_P1;SDS_P2;PMS_P1;PMS_P2;Temp;Humidity;BMP_temperature;BMP_pressure;BME280_temperature;BME280_humidity;BME280_pressure;Samples;Min_cycle;Max_cycle;Signal;HPM_P1;HPM_P2
2022/10/27 00:00:39;;;;;;;11.88;4.85;;;13.40;82.60;;;11.96;100.00;96858.72;4795682;29;20801;-64
2022/10/27 00:03:05;;;;;;;10.20;4.90;;;13.40;82.80;;;11.96;100.00;96860.56;4778749;29;20455;-64
2022/10/27 00:05:33;;;;;;;10.00;5.13;;;13.40;83.00;;;11.94;100.00;96871.28;4784026;29;20405;-64
2022/10/27 00:07:59;;;;;;;14.95;7.45;;;13.30;83.40;;;11.93;100.00;96864.38;4787559;29;20335;-64
2022/10/27 00:10:25;;;;;;;16.05;7.35;;;13.30;83.60;;;11.92;100.00;96867.19;4790285;29;20219;-64
2022/10/27 00:12:51;;;;;;;12.25;6.65;;;13.30;83.40;;;11.90;100.00;96864.72;4771695;29;20723;-64
2022/10/27 00:15:18;;;;;;;20.00;6.88;;;13.30;83.00;;;11.86;100.00;96868.72;4784985;29;20743;-65
2022/10/27 00:17:44;;;;;;;16.80;6.70;;;13.20;83.00;;;11.85;100.00;96871.53;4782932;29;20429;-66
2022/10/27 00:20:10;;;;;;;14.38;6.03;;;13.20;82.80;;;11.83;100.00;96866.44;4792409;29;20500;-64
2022/10/27 00:22:37;;;;;;;9.80;5.97;;;13.20;82.90;;;11.79;100.00;96872.25;4768624;29;20566;-64
2022/10/27 00:25:03;;;;;;;14.30;6.50;;;13.10;82.60;;;11.78;100.00;96875.88;4806639;29;20384;-63
2022/10/27 00:27:30;;;;;;;11.40;5.43;;;13.20;82.50;;;11.76;100.00;96872.56;4773443;29;20315;-62
2022/10/27 00:29:56;;;;;;;10.40;4.90;;;13.10;82.60;;;11.75;100.00;96865.66;4786495;29;20523;-64
2022/10/27 00:32:22;;;;;;;13.18;5.45;;;13.10;82.90;;;11.73;100.00;96862.38;4788973;29;20361;-63
2022/10/27 00:34:48;;;;;;;12.10;4.78;;;13.10;82.60;;;11.70;100.00;96868.00;4782119;29;20503;-62
2022/10/27 00:37:14;;;;;;;9.90;4.43;;;13.10;82.70;;;11.69;100.00;96861.09;4788821;29;20371;-64
2022/10/27 00:39:41;;;;;;;10.88;4.80;;;13.10;82.60;;;11.65;100.00;96865.91;4785163;29;20358;-63
2022/10/27 00:42:12;;;;;;;11.27;4.82;;;13.00;82.60;;;11.63;100.00;96876.63;4784433;29;20361;-63
2022/10/27 00:44:40;;;;;;;9.25;4.40;;;13.00;82.40;;;11.61;100.00;96878.63;4789061;29;20394;-64
2022/10/27 00:47:12;;;;;;;14.35;4.88;;;13.00;82.50;;;11.59;100.00;96883.25;4787492;29;20492;-63
2022/10/27 00:49:45;;;;;;;15.65;5.55;;;12.90;82.40;;;11.56;100.00;96883.59;4803915;29;20348;-63
2022/10/27 00:52:38;;;;;;;11.27;5.47;;;12.90;82.50;;;11.52;100.00;96887.56;4767478;29;20447;-63
2022/10/27 00:55:15;;;;;;;9.88;5.38;;;12.80;82.60;;;11.47;100.00;96882.00;4770738;29;20354;-63
2022/10/27 00:57:42;;;;;;;10.45;4.80;;;12.80;82.50;;;11.42;100.00;96886.97;4780400;29;20566;-63
2022/10/27 01:00:09;;;;;;;11.70;5.57;;;12.80;82.50;;;11.39;100.00;96882.06;4783986;29;20380;-63
2022/10/27 01:02:35;;;;;;;10.93;4.93;;;12.80;82.70;;;11.37;100.00;96885.88;4767636;29;20520;-63
2022/10/27 01:05:21;;;;;;;13.23;5.00;;;12.80;82.80;;;11.33;100.00;96886.22;4788096;29;20526;-63
2022/10/27 01:07:55;;;;;;;10.40;5.28;;;12.70;82.80;;;11.30;100.00;96883.09;4786957;29;20998;-64
2022/10/27 01:10:21;;;;;;;10.20;5.03;;;12.70;82.90;;;11.25;100.00;96886.25;4787986;29;20850;-64
2022/10/27 01:12:47;;;;;;;8.75;4.60;;;12.70;82.90;;;11.23;100.00;96890.06;4786546;29;20424;-65
2022/10/27 01:15:13;;;;;;;11.52;4.30;;;12.70;82.90;;;11.23;100.00;96892.69;4805685;29;20243;-63
2022/10/27 01:18:10;;;;;;;11.02;4.53;;;12.60;82.90;;;11.20;100.00;96883.31;4773604;29;20200;-63
2022/10/27 01:20:45;;;;;;;9.05;4.53;;;12.60;82.90;;;11.16;100.00;96882.03;4820694;29;20308;-63
2022/10/27 01:23:29;;;;;;;7.93;4.65;;;12.60;82.80;;;11.15;100.00;96882.22;4801917;28;20365;-63
2022/10/27 01:26:39;;;;;;;10.50;4.45;;;12.60;82.80;;;11.10;100.00;96892.44;4797689;29;20363;-63
2022/10/27 01:29:26;;;;;;;8.30;4.40;;;12.50;82.80;;;11.05;100.00;96893.75;4814527;29;20687;-63
2022/10/27 01:32:06;;;;;;;10.38;4.13;;;12.50;83.00;;;11.03;100.00;96892.28;4789182;29;20361;-63
2022/10/27 01:35:05;;;;;;;9.23;4.53;;;12.40;83.00;;;10.99;100.00;96891.81;4801195;29;20331;-64
2022/10/27 01:38:06;;;;;;;12.20;4.95;;;12.40;82.90;;;10.95;100.00;96887.91;4801132;28;20482;-64
2022/10/27 01:41:03;;;;;;;11.18;4.13;;;12.30;83.00;;;10.90;100.00;96890.22;4809942;29;20496;-63
2022/10/27 01:43:30;;;;;;;9.35;4.68;;;12.30;82.90;;;10.85;100.00;96894.34;4799991;29;20819;-65
2022/10/27 01:45:56;;;;;;;11.55;4.70;;;12.30;82.90;;;10.84;100.00;96893.53;4804064;29;20957;-64
2022/10/27 01:48:22;;;;;;;9.98;4.88;;;12.30;83.00;;;10.82;100.00;96890.25;4792816;29;20379;-65
2022/10/27 01:50:48;;;;;;;8.40;4.75;;;12.20;83.10;;;10.80;100.00;96892.22;4787115;29;20512;-64
2022/10/27 01:53:14;;;;;;;7.38;4.00;;;12.20;83.00;;;10.78;100.00;96894.22;4788295;28;20369;-64
2022/10/27 01:56:12;;;;;;;7.70;4.25;;;12.20;83.10;;;10.78;100.00;96894.22;4789187;29;20420;-64
2022/10/27 01:58:50;;;;;;;12.25;4.18;;;12.20;82.90;;;10.74;100.00;96891.09;4789465;29;20810;-64
2022/10/27 02:01:40;;;;;;;6.97;3.40;;;12.10;82.60;;;10.72;100.00;96894.91;4788041;29;20479;-63
2022/10/27 02:04:25;;;;;;;3.87;2.90;;;12.10;82.10;;;10.66;100.00;96890.34;4796579;29;20779;-64
2022/10/27 02:07:26;;;;;;;4.93;2.95;;;12.10;81.80;;;10.61;100.00;96887.38;4804243;29;20303;-63
2022/10/27 02:10:02;;;;;;;4.47;2.90;;;12.00;82.10;;;10.58;100.00;96888.53;4786288;29;20364;-64
2022/10/27 02:12:36;;;;;;;6.03;3.30;;;12.00;82.40;;;10.57;100.00;96892.16;4778769;29;20408;-64
2022/10/27 02:15:07;;;;;;;9.35;3.65;;;12.00;82.60;;;10.57;100.00;96886.06;4773919;29;20899;-65
2022/10/27 02:17:37;;;;;;;7.38;3.67;;;12.00;82.90;;;10.54;100.00;96891.66;4782797;29;20323;-62
2022/10/27 02:20:07;;;;;;;6.72;3.83;;;12.00;82.80;;;10.50;100.00;96887.75;4789697;29;20909;-63
2022/10/27 02:22:33;;;;;;;9.32;3.80;;;11.90;82.70;;;10.48;100.00;96894.97;4789988;29;20362;-64
2022/10/27 02:25:00;;;;;;;10.82;3.80;;;11.90;82.70;;;10.49;100.00;96886.09;4792399;29;20334;-63
2022/10/27 02:27:46;;;;;;;7.88;4.00;;;12.00;82.80;;;10.50;100.00;96879.84;4798761;29;20373;-64
2022/10/27 02:30:13;;;;;;;8.07;4.32;;;11.90;83.30;;;10.49;100.00;96880.84;4795379;29;20379;-65
2022/10/27 02:32:39;;;;;;;7.07;3.92;;;11.90;83.10;;;10.48;100.00;96887.09;4799205;29;20412;-63
2022/10/27 02:35:07;;;;;;;9.38;4.40;;;11.90;83.20;;;10.46;100.00;96896.97;4779099;29;20455;-63
2022/10/27 02:37:39;;;;;;;10.18;4.68;;;11.90;83.20;;;10.46;100.00;96891.72;4792960;28;20673;-63
2022/10/27 02:40:06;;;;;;;11.15;4.78;;;11.90;83.90;;;10.49;100.00;96896.63;4797359;29;20485;-63
2022/10/27 02:42:32;;;;;;;11.63;4.65;;;11.90;84.20;;;10.50;100.00;96885.13;4791196;29;20453;-64
2022/10/27 02:44:58;;;;;;;58.78;40.88;;;12.00;84.20;;;10.53;100.00;96884.78;4808826;29;20458;-63
2022/10/27 02:47:24;;;;;;;45.72;33.25;;;12.00;85.10;;;10.56;100.00;96895.78;4771857;29;20394;-63
2022/10/27 02:49:50;;;;;;;33.70;20.83;;;12.10;85.30;;;10.59;100.00;96889.34;4765027;29;20442;-63
2022/10/27 02:52:16;;;;;;;15.45;7.95;;;12.10;85.40;;;10.59;100.00;96894.59;4781647;29;20589;-63
2022/10/27 02:54:47;;;;;;;8.45;5.20;;;12.10;85.50;;;10.61;100.00;96897.88;4789551;29;20264;-63
2022/10/27 02:57:15;;;;;;;8.73;4.97;;;12.10;85.40;;;10.61;100.00;96901.34;4786574;29;20349;-65
2022/10/27 02:59:47;;;;;;;16.13;5.90;;;12.10;85.20;;;10.61;100.00;96897.88;4765445;29;20370;-64
2022/10/27 03:02:13;;;;;;;8.88;4.40;;;12.10;84.50;;;10.59;100.00;96899.88;4780825;29;20450;-64
2022/10/27 03:04:39;;;;;;;7.88;3.97;;;12.10;84.10;;;10.56;100.00;96900.22;4780396;29;20366;-63
2022/10/27 03:07:05;;;;;;;7.40;4.07;;;12.00;83.80;;;10.53;100.00;96900.56;4773263;29;20703;-64
2022/10/27 03:09:31;;;;;;;9.18;5.10;;;11.90;83.60;;;10.51;100.00;96898.09;4782793;29;20489;-63
2022/10/27 03:11:57;;;;;;;10.15;6.43;;;11.90;83.70;;;10.50;100.00;96901.72;4783130;29;20357;-63
2022/10/27 03:14:24;;;;;;;46.13;35.28;;;12.00;83.50;;;10.48;100.00;96902.88;4792766;29;20903;-64
2022/10/27 03:16:50;;;;;;;74.75;59.58;;;11.90;83.60;;;10.46;100.00;96899.59;4789530;29;20508;-64
2022/10/27 03:19:16;;;;;;;29.42;18.65;;;11.90;83.50;;;10.40;100.00;96896.63;4806117;29;20365;-63
2022/10/27 03:21:42;;;;;;;10.75;5.80;;;11.90;83.40;;;10.38;100.00;96897.78;4824060;29;20400;-62
2022/10/27 03:24:08;;;;;;;9.65;4.68;;;11.80;83.30;;;10.35;100.00;96898.13;4776045;29;20373;-63
2022/10/27 03:26:34;;;;;;;8.27;4.68;;;11.80;83.20;;;10.32;100.00;96899.28;4824122;28;20303;-63
2022/10/27 03:29:00;;;;;;;12.35;8.52;;;11.70;83.30;;;10.34;100.00;96897.31;4786525;29;20504;-64
2022/10/27 03:31:26;;;;;;;15.77;12.55;;;11.80;84.30;;;10.36;100.00;96900.59;4794838;29;20450;-62
2022/10/27 03:33:52;;;;;;;16.30;12.52;;;11.80;85.30;;;10.35;100.00;96893.69;4784260;29;20279;-63
2022/10/27 03:36:18;;;;;;;10.52;6.60;;;11.80;85.10;;;10.34;100.00;96896.47;4785273;29;20384;-66
2022/10/27 03:38:44;;;;;;;8.02;5.45;;;11.80;83.80;;;10.34;100.00;96902.56;4787691;29;20342;-63
2022/10/27 03:41:11;;;;;;;6.93;4.28;;;11.80;83.90;;;10.30;100.00;96903.91;4780854;29;20408;-63
2022/10/27 03:43:37;;;;;;;6.78;3.92;;;11.70;83.10;;;10.28;100.00;96905.88;4769737;29;20348;-66
2022/10/27 03:46:03;;;;;;;3.97;3.08;;;11.70;82.80;;;10.25;100.00;96903.59;4785197;29;20377;-63
2022/10/27 03:48:29;;;;;;;5.65;3.40;;;11.70;82.50;;;10.23;100.00;96899.47;4816451;29;20789;-64
2022/10/27 03:50:55;;;;;;;6.03;3.10;;;11.60;82.60;;;10.19;100.00;96901.59;4788688;29;20476;-63
2022/10/27 03:53:22;;;;;;;9.95;4.15;;;11.60;82.70;;;10.15;100.00;96895.00;4798975;29;20413;-63
2022/10/27 03:55:48;;;;;;;4.30;3.08;;;11.60;83.20;;;10.12;100.00;96895.34;4770719;29;20749;-63
2022/10/27 03:58:18;;;;;;;6.18;3.10;;;11.60;82.40;;;10.09;100.00;96903.56;4787388;29;20224;-64
2022/10/27 04:00:44;;;;;;;6.35;3.40;;;11.50;81.90;;;10.04;100.00;96904.06;4789944;29;20338;-65
2022/10/27 04:03:10;;;;;;;8.18;3.75;;;11.50;81.70;;;9.99;100.00;96903.75;4773110;29;20310;-66
2022/10/27 04:05:37;;;;;;;6.57;3.33;;;11.40;82.10;;;9.94;100.00;96900.78;4797258;29;20469;-66
2022/10/27 04:08:04;;;;;;;10.10;4.00;;;11.40;82.50;;;9.90;100.00;96909.97;4879716;29;20693;-66
2022/10/27 04:10:30;;;;;;;7.35;3.72;;;11.40;82.90;;;9.86;100.00;96902.59;4789580;29;20503;-67
2022/10/27 04:12:56;;;;;;;7.53;4.35;;;11.30;83.40;;;9.86;100.00;96902.59;4760354;29;20404;-65
2022/10/27 04:15:26;;;;;;;8.00;4.13;;;11.30;83.70;;;9.84;100.00;96910.63;4776540;29;20400;-67
2022/10/27 04:17:54;;;;;;;9.70;4.45;;;11.30;83.90;;;9.82;100.00;96907.34;4775799;29;20349;-67
2022/10/27 04:20:20;;;;;;;4.97;3.95;;;11.30;84.10;;;9.83;100.00;96914.25;4783716;29;20404;-66
2022/10/27 04:22:47;;;;;;;6.68;4.10;;;11.30;84.10;;;9.82;100.00;96923.13;4772716;29;20797;-66
2022/10/27 04:25:13;;;;;;;4.47;3.78;;;11.30;84.30;;;9.80;100.00;96919.84;4788053;29;20495;-66
2022/10/27 04:27:39;;;;;;;6.53;3.88;;;11.30;83.90;;;9.77;100.00;96921.00;4784906;29;20798;-66
2022/10/27 04:30:06;;;;;;;8.15;3.95;;;11.30;83.80;;;9.74;100.00;96918.69;4788646;29;20426;-66
2022/10/27 04:32:32;;;;;;;6.55;3.88;;;11.20;83.80;;;9.74;100.00;96921.31;4802968;29;20456;-66
2022/10/27 04:34:58;;;;;;;26.05;17.05;;;11.20;84.10;;;9.73;100.00;96924.94;4803248;29;20548;-65
2022/10/27 04:37:25;;;;;;;30.58;19.95;;;11.20;84.20;;;9.75;100.00;96922.97;4804885;29;20603;-67
2022/10/27 04:39:52;;;;;;;14.00;9.77;;;11.30;84.20;;;9.75;100.00;96928.22;4771846;29;20815;-66
2022/10/27 04:42:18;;;;;;;7.88;5.65;;;11.20;83.80;;;9.72;100.00;96930.31;4774956;29;20563;-66
2022/10/27 04:44:44;;;;;;;6.88;4.38;;;11.20;83.70;;;9.70;100.00;96925.25;4784533;29;20445;-66
2022/10/27 04:47:10;;;;;;;8.80;4.80;;;11.20;83.90;;;9.69;100.00;96926.22;4786942;29;20477;-65
2022/10/27 04:49:36;;;;;;;8.70;5.55;;;11.10;84.80;;;9.66;100.00;96923.94;4791713;29;20343;-66
2022/10/27 04:52:03;;;;;;;11.52;5.55;;;11.10;85.50;;;9.65;100.00;96932.78;4776061;29;20432;-66
2022/10/27 04:54:29;;;;;;;8.30;5.13;;;11.10;85.30;;;9.63;100.00;96931.31;4781789;29;20464;-67
2022/10/27 04:56:55;;;;;;;6.65;4.68;;;11.10;85.30;;;9.63;100.00;96929.50;4797862;29;20396;-68
2022/10/27 04:59:21;;;;;;;9.88;4.53;;;11.10;85.10;;;9.61;100.00;96923.59;4798041;29;20639;-67
2022/10/27 05:01:51;;;;;;;5.65;4.22;;;11.10;84.90;;;9.61;100.00;96925.41;4786337;29;20417;-71
2022/10/27 05:04:17;;;;;;;5.80;3.72;;;11.10;84.90;;;9.61;100.00;96928.03;4809475;29;20440;-69
2022/10/27 05:06:43;;;;;;;4.50;3.13;;;11.10;84.80;;;9.59;100.00;96928.19;4785937;29;20367;-66
2022/10/27 05:09:09;;;;;;;5.65;3.00;;;11.10;85.00;;;9.57;100.00;96930.16;4791582;29;20464;-70
2022/10/27 05:11:36;;;;;;;4.65;2.80;;;11.10;83.70;;;9.57;100.00;96926.72;4794652;29;20867;-64
2022/10/27 05:14:02;;;;;;;6.45;2.90;;;11.10;83.50;;;9.55;100.00;96923.44;4776926;29;20567;-66
2022/10/27 05:16:28;;;;;;;7.30;3.17;;;11.10;83.70;;;9.54;100.00;96921.78;4797024;29;20352;-65
2022/10/27 05:18:54;;;;;;;5.70;3.40;;;11.10;83.40;;;9.52;100.00;96921.97;4790023;29;20792;-66
2022/10/27 05:21:20;;;;;;;8.55;2.80;;;11.10;83.80;;;9.53;100.00;96928.84;4789570;29;20754;-67
2022/10/27 05:23:46;;;;;;;4.45;2.67;;;11.10;83.90;;;9.53;100.00;96928.84;4782965;29;20447;-66
2022/10/27 05:26:12;;;;;;;5.65;2.97;;;11.10;84.20;;;9.53;100.00;96936.72;4783100;29;20382;-66
2022/10/27 05:28:42;;;;;;;5.55;3.00;;;11.00;84.00;;;9.51;100.00;96936.91;4783288;29;20394;-65
2022/10/27 05:31:09;;;;;;;5.37;2.73;;;11.00;83.90;;;9.49;100.00;96930.13;4777103;29;20416;-66
2022/10/27 05:33:35;;;;;;;6.47;2.70;;;11.00;84.00;;;9.48;100.00;96931.13;4777826;29;20849;-64
2022/10/27 05:36:01;;;;;;;4.53;2.42;;;11.00;84.00;;;9.46;100.00;96928.66;4784857;29;20740;-65
2022/10/27 05:38:28;;;;;;;4.70;2.53;;;11.00;83.80;;;9.45;100.00;96932.25;4806938;29;20376;-65
2022/10/27 05:40:58;;;;;;;6.13;2.67;;;10.90;83.50;;;9.41;100.00;96924.88;4786618;29;20334;-66
2022/10/27 05:43:24;;;;;;;5.68;3.22;;;10.90;83.50;;;9.38;100.00;96931.28;4792247;28;20401;-65
2022/10/27 05:45:51;;;;;;;4.82;2.80;;;10.90;83.60;;;9.34;100.00;96934.38;4769347;29;20393;-65
2022/10/27 05:48:17;;;;;;;7.70;2.70;;;10.80;83.60;;;9.30;100.00;96943.56;4776703;29;20433;-63
2022/10/27 05:51:02;;;;;;;5.68;2.33;;;10.80;83.40;;;9.27;100.00;96938.63;4781910;29;20384;-67
2022/10/27 05:53:28;;;;;;;5.45;3.10;;;10.80;83.50;;;9.27;100.00;96943.88;4788026;29;20507;-66
2022/10/27 05:56:01;;;;;;;4.10;2.47;;;10.80;83.50;;;9.27;100.00;96943.88;4796688;29;20448;-64
2022/10/27 05:58:35;;;;;;;4.82;2.60;;;10.80;83.30;;;9.24;100.00;96946.81;4810043;29;20443;-66
2022/10/27 06:01:02;;;;;;;5.60;2.60;;;10.70;83.40;;;9.23;100.00;96947.78;4790531;29;20805;-66
2022/10/27 06:03:28;;;;;;;4.93;3.10;;;10.80;83.80;;;9.23;100.00;96947.78;4791491;29;20497;-66
2022/10/27 06:05:54;;;;;;;6.68;2.90;;;10.80;84.20;;;9.25;100.00;96951.09;4795578;29;20875;-65
2022/10/27 06:08:23;;;;;;;6.30;3.17;;;10.80;84.60;;;9.26;100.00;96948.28;4785054;29;20384;-66
2022/10/27 06:10:50;;;;;;;5.45;3.13;;;10.80;84.60;;;9.26;100.00;96956.16;4789714;29;20361;-65
2022/10/27 06:13:17;;;;;;;5.05;2.75;;;10.80;84.30;;;9.28;100.00;96958.63;4782765;29;20327;-66
2022/10/27 06:15:43;;;;;;;4.32;2.15;;;10.80;84.00;;;9.28;100.00;96956.00;4786246;29;20503;-65
2022/10/27 06:18:10;;;;;;;4.85;2.30;;;10.80;83.50;;;9.26;100.00;96963.22;4791447;29;20491;-64
2022/10/27 06:20:36;;;;;;;3.92;2.50;;;10.80;82.90;;;9.25;100.00;96961.59;4788620;29;20700;-66
2022/10/27 06:23:02;;;;;;;4.75;2.60;;;10.80;82.90;;;9.25;100.00;96965.03;4783782;29;20380;-64
2022/10/27 06:25:28;;;;;;;4.57;2.53;;;10.90;83.40;;;9.27;100.00;96970.13;4802339;29;20417;-64
2022/10/27 06:27:54;;;;;;;3.97;2.40;;;10.90;83.50;;;9.29;100.00;96973.44;4789760;29;20488;-65
2022/10/27 06:30:21;;;;;;;4.03;2.65;;;10.90;83.20;;;9.30;100.00;96977.69;4786222;29;20577;-62
2022/10/27 06:32:47;;;;;;;4.95;2.47;;;10.90;82.90;;;9.30;100.00;96977.69;4775614;29;20461;-63
2022/10/27 06:35:13;;;;;;;6.18;2.40;;;10.90;82.60;;;9.31;100.00;96976.72;4765985;29;20460;-61
2022/10/27 06:37:40;;;;;;;6.45;2.50;;;10.90;82.50;;;9.32;100.00;96978.38;4774969;29;20216;-63
2022/10/27 06:40:09;;;;;;;5.05;2.95;;;10.90;82.60;;;9.33;100.00;96980.00;4782103;29;20208;-64
2022/10/27 06:42:36;;;;;;;6.95;3.00;;;11.00;82.80;;;9.34;100.00;96982.47;4802443;29;20524;-63
2022/10/27 06:45:09;;;;;;;7.78;4.10;;;11.10;83.10;;;9.39;100.00;96984.63;4788709;29;20515;-70
2022/10/27 06:47:35;;;;;;;7.53;4.00;;;11.10;84.30;;;9.45;100.00;96979.53;4789698;29;20362;-64
2022/10/27 06:50:01;;;;;;;7.20;3.63;;;11.20;84.90;;;9.51;100.00;96983.34;4805717;29;20447;-64
2022/10/27 06:52:28;;;;;;;13.77;3.70;;;11.30;85.30;;;9.59;100.00;96977.28;4767843;29;20368;-66
2022/10/27 06:54:54;;;;;;;8.85;4.25;;;11.40;85.20;;;9.70;100.00;96976.97;4775838;29;20326;-66
2022/10/27 06:57:26;;;;;;;9.40;3.97;;;11.60;84.90;;;9.80;100.00;96980.28;4777049;28;20315;-67
2022/10/27 06:59:55;;;;;;;7.70;3.90;;;11.80;84.80;;;9.93;100.00;96977.97;4769578;29;20368;-66
2022/10/27 07:02:22;;;;;;;6.63;3.75;;;11.90;84.30;;;10.06;100.00;96983.56;4786587;29;20177;-67
2022/10/27 07:04:48;;;;;;;7.80;3.47;;;12.10;83.80;;;10.19;100.00;96988.34;4766257;29;20812;-67
2022/10/27 07:07:24;;;;;;;9.13;3.42;;;12.30;83.50;;;10.35;100.00;96991.00;4770723;29;20406;-66
2022/10/27 07:09:50;;;;;;;7.30;3.40;;;12.50;83.60;;;10.53;100.00;96990.00;4777037;29;20369;-66
2022/10/27 07:12:16;;;;;;;6.78;3.60;;;12.70;83.20;;;10.71;100.00;96988.81;4807190;29;20383;-66
2022/10/27 07:14:42;;;;;;;12.68;3.75;;;12.90;82.70;;;10.92;100.00;96993.53;4781903;29;20500;-66
2022/10/27 07:17:09;;;;;;;9.50;3.53;;;13.20;82.30;;;11.08;100.00;96995.28;4786773;29;20490;-65
2022/10/27 07:19:35;;;;;;;7.57;3.45;;;13.40;81.20;;;11.27;100.00;97000.16;4785602;29;20298;-64
2022/10/27 07:22:01;;;;;;;6.43;3.88;;;13.70;80.20;;;11.48;100.00;96996.94;4807343;29;20372;-66
2022/10/27 07:24:27;;;;;;;7.15;3.42;;;14.10;79.60;;;11.69;100.00;96993.69;4762799;29;20345;-63
2022/10/27 07:26:54;;;;;;;8.77;3.70;;;14.50;78.60;;;11.92;100.00;96993.75;4789643;29;20759;-65
2022/10/27 07:29:20;;;;;;;9.10;3.38;;;14.90;77.20;;;12.16;100.00;96990.91;4772881;29;20436;-65
2022/10/27 07:31:46;;;;;;;9.07;3.50;;;15.20;75.80;;;12.37;100.00;96987.63;4770325;29;20323;-65
2022/10/27 07:34:13;;;;;;;10.38;3.58;;;15.50;75.00;;;12.60;100.00;96992.84;4786872;29;20416;-65
2022/10/27 07:36:39;;;;;;;10.10;3.60;;;15.80;74.10;;;12.81;100.00;96995.63;4775193;29;20784;-65
2022/10/27 07:39:05;;;;;;;8.55;3.60;;;16.10;72.70;;;13.02;100.00;96996.72;4799959;29;20566;-66
2022/10/27 07:41:31;;;;;;;9.85;3.45;;;16.30;72.30;;;13.19;100.00;97000.84;4789693;29;20338;-63
2022/10/27 07:43:58;;;;;;;8.63;3.80;;;16.50;71.20;;;13.37;100.00;97001.31;4776465;29;20476;-68
2022/10/27 07:46:24;;;;;;;8.05;3.65;;;16.60;70.50;;;13.54;100.00;97004.53;4806094;29;20384;-65
2022/10/27 07:48:50;;;;;;;8.45;3.78;;;16.80;70.10;;;13.69;100.00;97005.34;4793345;29;20688;-69
2022/10/27 07:51:16;;;;;;;5.80;3.70;;;17.00;69.30;;;13.88;100.00;97011.84;4775498;28;20368;-67
2022/10/27 07:53:42;;;;;;;8.75;3.35;;;17.10;68.70;;;14.07;100.00;97000.66;4775395;29;20445;-65
2022/10/27 07:56:09;;;;;;;8.75;3.40;;;17.40;68.00;;;14.23;100.00;97004.88;4780725;29;20457;-66
2022/10/27 07:58:35;;;;;;;7.00;3.40;;;17.60;67.50;;;14.41;100.00;97001.78;4776306;29;20398;-68
2022/10/27 08:01:03;;;;;;;8.50;3.20;;;17.80;66.90;;;14.56;100.00;96999.09;4803432;29;20852;-67
2022/10/27 08:03:30;;;;;;;6.97;3.20;;;17.90;65.90;;;14.69;100.00;97000.00;4788267;29;20503;-66
2022/10/27 08:06:02;;;;;;;7.38;3.40;;;18.00;65.30;;;14.87;100.00;96998.69;4792958;29;20470;-68
2022/10/27 08:08:29;;;;;;;6.22;3.20;;;18.10;65.10;;;15.03;100.00;96998.41;4792045;29;20322;-67
2022/10/27 08:10:55;;;;;;;6.25;3.30;;;18.40;64.00;;;15.16;100.00;96998.50;4798903;29;20421;-64
2022/10/27 08:13:21;;;;;;;5.32;3.40;;;18.60;62.90;;;15.30;100.00;96991.41;4775618;29;20390;-65
2022/10/27 08:15:47;;;;;;;4.90;2.70;;;18.70;63.40;;;15.48;100.00;96996.19;4776457;29;20661;-66
2022/10/27 08:18:13;;;;;;;9.30;3.33;;;18.90;62.90;;;15.68;100.00;96997.13;4791422;29;20491;-66
2022/10/27 08:20:45;;;;;;;6.95;3.10;;;19.10;62.10;;;15.85;100.00;96998.41;4774336;29;20490;-65
2022/10/27 08:23:17;;;;;;;14.65;10.30;;;19.20;60.80;;;16.03;100.00;96989.03;4789677;29;20701;-64
2022/10/27 08:25:43;;;;;;;9.68;6.40;;;19.60;60.60;;;16.27;100.00;96991.09;4783317;29;20747;-62
2022/10/27 08:28:13;;;;;;;9.38;6.78;;;20.00;59.50;;;16.49;100.00;96989.88;4773129;29;20321;-62
2022/10/27 08:30:42;;;;;;;8.45;5.35;;;20.50;58.80;;;16.74;100.00;96998.09;4767994;29;20911;-64
2022/10/27 08:33:08;;;;;;;8.32;5.57;;;21.10;57.00;;;17.00;100.00;96997.25;4806959;29;20827;-64
2022/10/27 08:35:35;;;;;;;5.88;2.97;;;21.60;55.50;;;17.30;100.00;97000.25;4800919;28;20707;-63
2022/10/27 08:38:06;;;;;;;4.07;2.90;;;22.20;53.80;;;17.60;96.63;96987.25;4799555;29;20296;-65
2022/10/27 08:41:19;;;;;;;5.10;2.47;;;22.60;52.30;;;17.94;91.45;96986.09;4771627;29;20344;-64
2022/10/27 08:43:58;;;;;;;7.85;2.42;;;23.00;51.30;;;18.23;91.43;96983.88;4805151;29;20407;-65
2022/10/27 08:46:35;;;;;;;6.05;2.22;;;23.40;50.40;;;18.53;91.45;96992.03;4809089;29;20394;-66
2022/10/27 08:49:05;;;;;;;5.50;2.17;;;23.60;49.40;;;18.84;93.08;96988.53;4793275;29;20567;-66
2022/10/27 08:51:32;;;;;;;6.60;2.20;;;24.10;48.90;;;19.13;92.42;96990.50;4794411;29;20458;-66
2022/10/27 08:53:58;;;;;;;8.57;2.28;;;24.30;48.40;;;19.44;90.16;96994.88;4778138;29;20352;-65
2022/10/27 08:56:27;;;;;;;3.83;1.92;;;24.60;46.90;;;19.70;86.93;96988.47;4767215;29;20556;-66
2022/10/27 08:58:54;;;;;;;5.35;2.13;;;25.00;45.70;;;19.99;86.17;96986.84;4788513;29;20928;-64
2022/10/27 09:01:33;;;;;;;6.55;2.28;;;25.40;45.00;;;20.29;84.69;96986.81;4778094;29;20511;-65
2022/10/27 09:04:10;;;;;;;6.53;2.20;;;25.90;44.50;;;20.58;79.66;96995.03;4786516;29;20937;-65
2022/10/27 09:07:27;;;;;;;5.53;1.90;;;26.30;42.70;;;20.93;75.50;96981.69;4802740;29;20417;-66
2022/10/27 09:09:57;;;;;;;5.30;2.10;;;26.90;41.80;;;21.27;80.83;96983.56;4770473;29;20377;-65
2022/10/27 09:12:47;;;;;;;;;;;27.60;40.60;;;21.58;72.41;96966.28;4789705;29;20605;-64
2022/10/27 09:16:05;;;;;;;8.43;2.35;;;28.40;39.40;;;21.96;71.58;96970.22;4793340;29;20394;-66
2022/10/27 09:18:42;;;;;;;5.93;1.67;;;29.10;36.90;;;22.28;71.75;96965.19;4777816;29;20330;-66
2022/10/27 09:21:14;;;;;;;11.32;2.05;;;29.80;36.10;;;22.48;72.30;96968.22;4788940;29;20349;-67
2022/10/27 09:23:56;;;;;;;4.78;2.25;;;30.30;35.00;;;22.86;67.21;96958.66;4789081;29;20219;-66
2022/10/27 09:26:32;;;;;;;5.55;1.88;;;31.40;33.70;;;23.23;68.00;96958.91;4791340;29;20323;-68
2022/10/27 09:29:05;;;;;;;6.18;2.10;;;32.40;32.90;;;23.59;69.27;96957.53;4802623;29;20311;-65
2022/10/27 09:31:46;;;;;;;5.95;1.92;;;33.10;31.40;;;23.96;64.32;96949.59;4796164;29;20372;-68
2022/10/27 09:34:33;;;;;;;4.55;1.70;;;34.10;29.50;;;24.26;62.33;96951.78;4804585;29;20490;-70
2022/10/27 09:36:59;;;;;;;4.88;1.90;;;34.60;28.50;;;24.65;71.08;96948.88;4782934;29;20709;-70
2022/10/27 09:39:25;;;;;;;5.63;1.77;;;35.50;26.90;;;24.96;69.15;96953.44;4776211;28;20243;-72
2022/10/27 09:41:52;;;;;;;5.78;3.40;;;36.00;26.40;;;25.39;67.58;96954.25;4794184;29;20322;-71
2022/10/27 09:44:28;;;;;;;5.13;2.05;;;36.90;25.80;;;25.77;57.76;96944.16;4809216;29;20372;-70
2022/10/27 09:46:54;;;;;;;3.80;1.67;;;37.40;25.20;;;26.27;65.44;96953.44;4792365;29;20426;-66
2022/10/27 09:49:26;;;;;;;4.80;1.85;;;38.40;24.20;;;26.79;56.15;96945.09;4820579;29;20382;-66
2022/10/27 09:51:58;;;;;;;4.32;2.00;;;39.20;23.40;;;27.31;58.95;96952.84;4782037;29;20477;-66
2022/10/27 09:54:29;;;;;;;5.85;1.60;;;39.80;22.90;;;27.90;54.51;96946.69;4778263;29;20342;-66
2022/10/27 09:57:18;;;;;;;3.42;1.50;;;40.20;22.50;;;28.44;50.74;96953.94;4798024;29;20384;-65
2022/10/27 10:00:06;;;;;;;3.83;1.20;;;40.80;21.60;;;28.98;48.46;96947.56;4793531;29;20563;-65
2022/10/27 10:02:36;;;;;;;5.40;1.70;;;41.50;21.00;;;29.36;53.63;96955.81;4796434;29;20648;-66
2022/10/27 10:05:29;;;;;;;7.03;1.65;;;41.70;20.70;;;29.72;48.64;96946.22;4789109;29;20511;-65
2022/10/27 10:08:32;;;;;;;5.97;1.55;;;42.30;20.40;;;30.29;45.28;96932.66;4795750;29;20579;-65
2022/10/27 10:11:04;;;;;;;7.75;2.00;;;42.80;19.90;;;30.66;45.95;96937.28;4807337;29;20223;-70
2022/10/27 10:13:32;;;;;;;6.97;1.75;;;43.10;19.60;;;31.00;50.03;96943.19;4787743;29;20629;-66
2022/10/27 10:16:13;;;;;;;3.30;1.33;;;43.40;19.60;;;31.24;42.25;96920.50;4768160;29;20369;-66
2022/10/27 10:18:40;;;;;;;4.70;1.80;;;43.50;19.30;;;31.46;48.92;96939.66;4797492;29;20723;-68
2022/10/27 10:21:11;;;;;;;4.57;1.55;;;43.70;19.20;;;31.57;41.14;96932.06;4788493;29;20378;-67
2022/10/27 10:23:52;;;;;;;6.13;1.95;;;43.20;18.90;;;31.63;39.51;96936.28;4771568;29;20283;-65
2022/10/27 10:26:24;;;;;;;4.32;1.63;;;42.00;20.40;;;31.56;41.42;96934.00;4783939;29;20445;-67